Flick Point, California
Current Conditions -  °F | °C
As of 5:15 AM on Saturday 01 Nov 2014 (Local Time) from KTRK Reporting Station
Light Rain Light Rain  
Wind Chill: 34°   Ceiling: 1400
Heat Index: 34°   Visibility: 10mi
Dew Point: 32°   Wind: 3mph
Humidity: 93%   Direction: 280°W
Pressure: 29.69"   Gusts: NA
Location:  39.2392°N, 120.102°W
Report Text: KTRK 011215Z AUTO 28003KT 10SM -RA SCT009 BKN014 OVC027 01/00 A2969 RMK AO2 LTG DSNT SE
Loading
Personal Weather Stations






























Interactive Weather Map New forecast layout! Learn more

10-Day Weather Forecast

Advertisements
Track Severe Weather on mobile